sensor_id;sensor_type;location;lat;lon;timestamp;temperature;humidity
74513;DHT22;62992;52.052;8.550;2023-03-14T00:00:54;11.20;99.90
74513;DHT22;62992;52.052;8.550;2023-03-14T00:03:38;11.20;99.90
74513;DHT22;62992;52.052;8.550;2023-03-14T00:06:22;11.20;99.90
74513;DHT22;62992;52.052;8.550;2023-03-14T00:09:07;11.20;99.90
74513;DHT22;62992;52.052;8.550;2023-03-14T00:11:52;11.20;99.90
74513;DHT22;62992;52.052;8.550;2023-03-14T00:14:36;11.10;99.90
74513;DHT22;62992;52.052;8.550;2023-03-14T00:17:20;11.20;99.90
74513;DHT22;62992;52.052;8.550;2023-03-14T00:20:06;11.30;99.90
74513;DHT22;62992;52.052;8.550;2023-03-14T00:22:55;11.30;99.90
74513;DHT22;62992;52.052;8.550;2023-03-14T00:25:39;11.20;99.90
74513;DHT22;62992;52.052;8.550;2023-03-14T00:28:23;11.20;99.90
74513;DHT22;62992;52.052;8.550;2023-03-14T00:31:08;11.10;99.90
74513;DHT22;62992;52.052;8.550;2023-03-14T00:33:53;11.20;99.90
74513;DHT22;62992;52.052;8.550;2023-03-14T00:36:38;11.20;99.90
74513;DHT22;62992;52.052;8.550;2023-03-14T00:39:22;11.20;99.90
74513;DHT22;62992;52.052;8.550;2023-03-14T00:42:06;11.10;99.90
74513;DHT22;62992;52.052;8.550;2023-03-14T00:44:50;11.10;99.90
74513;DHT22;62992;52.052;8.550;2023-03-14T00:47:34;11.10;99.90
74513;DHT22;62992;52.052;8.550;2023-03-14T00:50:18;11.00;99.90
74513;DHT22;62992;52.052;8.550;2023-03-14T00:53:02;11.20;99.90
74513;DHT22;62992;52.052;8.550;2023-03-14T00:55:46;11.10;99.90
74513;DHT22;62992;52.052;8.550;2023-03-14T00:58:31;11.10;99.90
74513;DHT22;62992;52.052;8.550;2023-03-14T01:01:17;11.10;99.90
74513;DHT22;62992;52.052;8.550;2023-03-14T01:04:02;11.10;99.90
74513;DHT22;62992;52.052;8.550;2023-03-14T01:06:46;11.10;99.90
74513;DHT22;62992;52.052;8.550;2023-03-14T01:09:30;11.10;99.90
74513;DHT22;62992;52.052;8.550;2023-03-14T01:12:14;11.10;99.90
74513;DHT22;62992;52.052;8.550;2023-03-14T01:14:58;11.10;99.90
74513;DHT22;62992;52.052;8.550;2023-03-14T01:17:43;11.10;99.90
74513;DHT22;62992;52.052;8.550;2023-03-14T01:20:27;11.10;99.90
74513;DHT22;62992;52.052;8.550;2023-03-14T01:23:11;11.20;99.90
74513;DHT22;62992;52.052;8.550;2023-03-14T01:25:55;11.20;99.90
74513;DHT22;62992;52.052;8.550;2023-03-14T01:28:40;11.20;99.90
74513;DHT22;62992;52.052;8.550;2023-03-14T01:31:25;11.20;99.90
74513;DHT22;62992;52.052;8.550;2023-03-14T01:34:10;11.20;99.90
74513;DHT22;62992;52.052;8.550;2023-03-14T01:36:54;11.20;99.90
74513;DHT22;62992;52.052;8.550;2023-03-14T01:39:38;11.20;99.90
74513;DHT22;62992;52.052;8.550;2023-03-14T01:42:22;11.20;99.90
74513;DHT22;62992;52.052;8.550;2023-03-14T01:48:36;11.30;99.90
74513;DHT22;62992;52.052;8.550;2023-03-14T01:51:25;11.30;99.90
74513;DHT22;62992;52.052;8.550;2023-03-14T02:02:50;11.30;99.90
74513;DHT22;62992;52.052;8.550;2023-03-14T02:05:38;11.30;99.90
74513;DHT22;62992;52.052;8.550;2023-03-14T02:08:23;11.30;99.90
74513;DHT22;62992;52.052;8.550;2023-03-14T02:11:08;11.30;99.90
74513;DHT22;62992;52.052;8.550;2023-03-14T02:13:52;11.30;99.90
74513;DHT22;62992;52.052;8.550;2023-03-14T02:16:37;11.30;99.90
74513;DHT22;62992;52.052;8.550;2023-03-14T02:19:34;11.20;99.90
74513;DHT22;62992;52.052;8.550;2023-03-14T02:22:20;11.20;99.90
74513;DHT22;62992;52.052;8.550;2023-03-14T02:28:01;11.30;99.90
74513;DHT22;62992;52.052;8.550;2023-03-14T02:49:17;9.50;99.90
74513;DHT22;62992;52.052;8.550;2023-03-14T02:52:02;9.40;99.90
74513;DHT22;62992;52.052;8.550;2023-03-14T02:54:46;9.40;99.90
74513;DHT22;62992;52.052;8.550;2023-03-14T02:57:30;9.30;99.90
74513;DHT22;62992;52.052;8.550;2023-03-14T03:00:15;9.30;99.90
74513;DHT22;62992;52.052;8.550;2023-03-14T03:02:59;9.20;99.90
74513;DHT22;62992;52.052;8.550;2023-03-14T03:05:48;9.20;99.90
74513;DHT22;62992;52.052;8.550;2023-03-14T03:08:34;9.20;99.90
74513;DHT22;62992;52.052;8.550;2023-03-14T03:11:18;9.10;99.90
74513;DHT22;62992;52.052;8.550;2023-03-14T03:14:02;9.10;99.90
74513;DHT22;62992;52.052;8.550;2023-03-14T03:16:46;9.00;99.90
74513;DHT22;62992;52.052;8.550;2023-03-14T03:19:31;9.00;99.90
74513;DHT22;62992;52.052;8.550;2023-03-14T03:22:15;9.00;99.90
74513;DHT22;62992;52.052;8.550;2023-03-14T03:24:59;8.90;99.90
74513;DHT22;62992;52.052;8.550;2023-03-14T03:27:43;9.00;99.90
74513;DHT22;62992;52.052;8.550;2023-03-14T03:30:27;9.00;99.90
74513;DHT22;62992;52.052;8.550;2023-03-14T03:33:12;9.00;99.90
74513;DHT22;62992;52.052;8.550;2023-03-14T03:35:56;9.00;99.90
74513;DHT22;62992;52.052;8.550;2023-03-14T03:38:40;8.90;99.90
74513;DHT22;62992;52.052;8.550;2023-03-14T03:41:24;8.90;99.90
74513;DHT22;62992;52.052;8.550;2023-03-14T03:44:08;9.00;99.90
74513;DHT22;62992;52.052;8.550;2023-03-14T03:46:52;8.90;99.90
74513;DHT22;62992;52.052;8.550;2023-03-14T03:49:36;9.00;99.90
74513;DHT22;62992;52.052;8.550;2023-03-14T03:52:20;8.90;99.90
74513;DHT22;62992;52.052;8.550;2023-03-14T03:55:05;8.90;99.90
74513;DHT22;62992;52.052;8.550;2023-03-14T03:57:49;8.90;99.90
74513;DHT22;62992;52.052;8.550;2023-03-14T04:00:33;8.80;99.90
74513;DHT22;62992;52.052;8.550;2023-03-14T04:03:17;8.80;99.90
74513;DHT22;62992;52.052;8.550;2023-03-14T04:06:05;8.80;99.90
74513;DHT22;62992;52.052;8.550;2023-03-14T04:08:49;8.80;99.90
74513;DHT22;62992;52.052;8.550;2023-03-14T04:11:33;8.80;99.90
74513;DHT22;62992;52.052;8.550;2023-03-14T04:14:17;8.80;99.90
74513;DHT22;62992;52.052;8.550;2023-03-14T04:17:01;8.70;99.90
74513;DHT22;62992;52.052;8.550;2023-03-14T04:19:45;8.70;99.90
74513;DHT22;62992;52.052;8.550;2023-03-14T04:22:30;8.80;99.90
74513;DHT22;62992;52.052;8.550;2023-03-14T04:25:14;8.80;99.90
74513;DHT22;62992;52.052;8.550;2023-03-14T04:28:01;8.80;99.90
74513;DHT22;62992;52.052;8.550;2023-03-14T04:30:47;8.80;99.90
74513;DHT22;62992;52.052;8.550;2023-03-14T04:33:31;8.80;99.90
74513;DHT22;62992;52.052;8.550;2023-03-14T04:36:16;8.80;99.90
74513;DHT22;62992;52.052;8.550;2023-03-14T04:38:59;8.70;99.90
74513;DHT22;62992;52.052;8.550;2023-03-14T04:41:44;8.80;99.90
74513;DHT22;62992;52.052;8.550;2023-03-14T04:44:29;8.80;99.90
74513;DHT22;62992;52.052;8.550;2023-03-14T04:47:13;8.80;99.90
74513;DHT22;62992;52.052;8.550;2023-03-14T04:49:57;8.70;99.90
74513;DHT22;62992;52.052;8.550;2023-03-14T04:52:41;8.70;99.90
74513;DHT22;62992;52.052;8.550;2023-03-14T04:55:25;8.70;99.90
74513;DHT22;62992;52.052;8.550;2023-03-14T04:58:09;8.70;99.90
74513;DHT22;62992;52.052;8.550;2023-03-14T05:00:53;8.70;99.90
74513;DHT22;62992;52.052;8.550;2023-03-14T05:03:37;8.70;99.90
74513;DHT22;62992;52.052;8.550;2023-03-14T05:06:22;8.70;99.90
74513;DHT22;62992;52.052;8.550;2023-03-14T05:09:06;8.70;99.90
74513;DHT22;62992;52.052;8.550;2023-03-14T05:11:50;8.70;99.90
74513;DHT22;62992;52.052;8.550;2023-03-14T05:14:34;8.70;99.90
74513;DHT22;62992;52.052;8.550;2023-03-14T05:17:18;8.80;99.90
74513;DHT22;62992;52.052;8.550;2023-03-14T05:20:03;8.80;99.90
74513;DHT22;62992;52.052;8.550;2023-03-14T05:22:56;8.80;99.90
74513;DHT22;62992;52.052;8.550;2023-03-14T05:25:43;8.80;99.90
74513;DHT22;62992;52.052;8.550;2023-03-14T05:28:27;8.80;99.90
74513;DHT22;62992;52.052;8.550;2023-03-14T05:31:12;8.80;99.90
74513;DHT22;62992;52.052;8.550;2023-03-14T05:33:56;8.90;99.90
74513;DHT22;62992;52.052;8.550;2023-03-14T05:36:40;8.90;99.90
74513;DHT22;62992;52.052;8.550;2023-03-14T05:39:24;8.90;99.90
74513;DHT22;62992;52.052;8.550;2023-03-14T05:42:08;8.90;99.90
74513;DHT22;62992;52.052;8.550;2023-03-14T05:44:52;8.90;99.90
74513;DHT22;62992;52.052;8.550;2023-03-14T05:47:36;8.90;99.90
74513;DHT22;62992;52.052;8.550;2023-03-14T05:50:20;8.90;99.90
74513;DHT22;62992;52.052;8.550;2023-03-14T05:53:04;9.00;99.90
74513;DHT22;62992;52.052;8.550;2023-03-14T05:55:54;8.90;99.90
74513;DHT22;62992;52.052;8.550;2023-03-14T05:58:38;9.00;99.90
74513;DHT22;62992;52.052;8.550;2023-03-14T06:01:22;9.00;99.90
74513;DHT22;62992;52.052;8.550;2023-03-14T06:04:06;9.10;99.90
74513;DHT22;62992;52.052;8.550;2023-03-14T06:06:50;9.10;99.90
74513;DHT22;62992;52.052;8.550;2023-03-14T06:09:34;9.00;99.90
74513;DHT22;62992;52.052;8.550;2023-03-14T06:12:18;9.00;99.90
74513;DHT22;62992;52.052;8.550;2023-03-14T06:15:03;8.90;99.90
74513;DHT22;62992;52.052;8.550;2023-03-14T06:17:47;8.90;99.90
74513;DHT22;62992;52.052;8.550;2023-03-14T06:20:31;8.90;99.90
74513;DHT22;62992;52.052;8.550;2023-03-14T06:23:16;8.90;99.90
74513;DHT22;62992;52.052;8.550;2023-03-14T06:26:00;8.90;99.90
74513;DHT22;62992;52.052;8.550;2023-03-14T06:28:45;8.90;99.90
74513;DHT22;62992;52.052;8.550;2023-03-14T06:31:32;8.80;99.90
74513;DHT22;62992;52.052;8.550;2023-03-14T06:34:16;8.80;99.90
74513;DHT22;62992;52.052;8.550;2023-03-14T06:37:00;8.80;99.90
74513;DHT22;62992;52.052;8.550;2023-03-14T06:39:44;8.70;99.90
74513;DHT22;62992;52.052;8.550;2023-03-14T06:42:28;8.70;99.90
74513;DHT22;62992;52.052;8.550;2023-03-14T06:45:13;8.60;99.90
74513;DHT22;62992;52.052;8.550;2023-03-14T06:47:57;8.60;99.90
74513;DHT22;62992;52.052;8.550;2023-03-14T06:50:42;8.50;99.90
74513;DHT22;62992;52.052;8.550;2023-03-14T06:53:26;8.50;99.90
74513;DHT22;62992;52.052;8.550;2023-03-14T06:56:10;8.50;99.90
74513;DHT22;62992;52.052;8.550;2023-03-14T06:58:54;8.60;99.90
74513;DHT22;62992;52.052;8.550;2023-03-14T07:01:38;8.50;99.90
74513;DHT22;62992;52.052;8.550;2023-03-14T07:04:22;8.50;99.90
74513;DHT22;62992;52.052;8.550;2023-03-14T07:07:08;8.50;99.90
74513;DHT22;62992;52.052;8.550;2023-03-14T07:09:52;8.60;99.90
74513;DHT22;62992;52.052;8.550;2023-03-14T07:12:36;8.60;99.90
74513;DHT22;62992;52.052;8.550;2023-03-14T07:15:20;8.60;99.90
74513;DHT22;62992;52.052;8.550;2023-03-14T07:18:04;8.60;99.90
74513;DHT22;62992;52.052;8.550;2023-03-14T07:20:48;8.50;99.90
74513;DHT22;62992;52.052;8.550;2023-03-14T07:23:33;8.60;99.90
74513;DHT22;62992;52.052;8.550;2023-03-14T07:26:17;8.50;99.90
74513;DHT22;62992;52.052;8.550;2023-03-14T07:29:01;8.50;99.90
74513;DHT22;62992;52.052;8.550;2023-03-14T07:31:47;8.50;99.90
74513;DHT22;62992;52.052;8.550;2023-03-14T07:34:31;8.50;99.90
74513;DHT22;62992;52.052;8.550;2023-03-14T07:37:15;8.50;99.90
74513;DHT22;62992;52.052;8.550;2023-03-14T07:39:59;8.60;99.90
74513;DHT22;62992;52.052;8.550;2023-03-14T07:42:43;8.60;99.90
74513;DHT22;62992;52.052;8.550;2023-03-14T07:45:28;8.70;99.90
74513;DHT22;62992;52.052;8.550;2023-03-14T07:48:12;8.80;99.90
74513;DHT22;62992;52.052;8.550;2023-03-14T07:50:56;8.70;99.90
74513;DHT22;62992;52.052;8.550;2023-03-14T07:53:40;8.70;99.90
74513;DHT22;62992;52.052;8.550;2023-03-14T07:56:27;8.70;99.90
74513;DHT22;62992;52.052;8.550;2023-03-14T07:59:11;8.70;99.90
74513;DHT22;62992;52.052;8.550;2023-03-14T08:01:56;8.80;99.90
74513;DHT22;62992;52.052;8.550;2023-03-14T08:04:40;8.80;99.90
74513;DHT22;62992;52.052;8.550;2023-03-14T08:07:24;8.70;99.90
74513;DHT22;62992;52.052;8.550;2023-03-14T08:10:09;8.90;99.90
74513;DHT22;62992;52.052;8.550;2023-03-14T08:12:55;8.90;99.90
74513;DHT22;62992;52.052;8.550;2023-03-14T08:15:40;9.00;99.90
74513;DHT22;62992;52.052;8.550;2023-03-14T08:18:24;9.00;99.90
74513;DHT22;62992;52.052;8.550;2023-03-14T08:21:09;8.90;99.90
74513;DHT22;62992;52.052;8.550;2023-03-14T08:23:53;8.90;99.90
74513;DHT22;62992;52.052;8.550;2023-03-14T08:26:37;9.00;99.90
74513;DHT22;62992;52.052;8.550;2023-03-14T08:29:21;9.10;99.90
74513;DHT22;62992;52.052;8.550;2023-03-14T08:32:05;9.10;99.90
74513;DHT22;62992;52.052;8.550;2023-03-14T08:34:50;9.10;99.90
74513;DHT22;62992;52.052;8.550;2023-03-14T08:37:34;9.20;99.90
74513;DHT22;62992;52.052;8.550;2023-03-14T08:40:19;9.20;99.90
74513;DHT22;62992;52.052;8.550;2023-03-14T08:43:03;9.20;99.90
74513;DHT22;62992;52.052;8.550;2023-03-14T08:45:47;9.20;99.90
74513;DHT22;62992;52.052;8.550;2023-03-14T08:48:31;9.30;99.90
74513;DHT22;62992;52.052;8.550;2023-03-14T08:51:15;9.40;99.90
74513;DHT22;62992;52.052;8.550;2023-03-14T08:54:01;9.60;99.90
74513;DHT22;62992;52.052;8.550;2023-03-14T08:56:45;9.80;99.90
74513;DHT22;62992;52.052;8.550;2023-03-14T08:59:29;9.70;99.90
74513;DHT22;62992;52.052;8.550;2023-03-14T09:02:13;9.60;99.90
74513;DHT22;62992;52.052;8.550;2023-03-14T09:04:57;9.70;99.90
74513;DHT22;62992;52.052;8.550;2023-03-14T09:07:41;9.70;99.90
74513;DHT22;62992;52.052;8.550;2023-03-14T09:10:26;9.80;99.90
74513;DHT22;62992;52.052;8.550;2023-03-14T09:13:10;9.80;99.90
74513;DHT22;62992;52.052;8.550;2023-03-14T09:15:55;9.70;99.90
74513;DHT22;62992;52.052;8.550;2023-03-14T09:18:39;9.70;99.90
74513;DHT22;62992;52.052;8.550;2023-03-14T09:21:23;9.70;99.90
74513;DHT22;62992;52.052;8.550;2023-03-14T09:24:07;9.90;99.90
74513;DHT22;62992;52.052;8.550;2023-03-14T09:26:51;9.90;99.90
74513;DHT22;62992;52.052;8.550;2023-03-14T09:29:35;9.90;99.90
74513;DHT22;62992;52.052;8.550;2023-03-14T09:32:19;10.40;99.90
74513;DHT22;62992;52.052;8.550;2023-03-14T09:35:04;10.40;99.90
74513;DHT22;62992;52.052;8.550;2023-03-14T09:37:48;10.30;99.90
74513;DHT22;62992;52.052;8.550;2023-03-14T09:40:35;10.40;99.90
74513;DHT22;62992;52.052;8.550;2023-03-14T09:43:21;10.60;99.90
74513;DHT22;62992;52.052;8.550;2023-03-14T09:46:08;10.60;99.90
74513;DHT22;62992;52.052;8.550;2023-03-14T09:48:53;11.20;99.90
74513;DHT22;62992;52.052;8.550;2023-03-14T09:51:37;13.30;99.90
74513;DHT22;62992;52.052;8.550;2023-03-14T09:54:36;13.60;99.90
74513;DHT22;62992;52.052;8.550;2023-03-14T09:57:26;12.40;99.90
74513;DHT22;62992;52.052;8.550;2023-03-14T10:00:18;11.60;99.90
74513;DHT22;62992;52.052;8.550;2023-03-14T10:05:56;11.10;99.90
74513;DHT22;62992;52.052;8.550;2023-03-14T10:08:42;11.00;99.90
74513;DHT22;62992;52.052;8.550;2023-03-14T10:11:26;11.00;99.90
74513;DHT22;62992;52.052;8.550;2023-03-14T10:14:11;11.00;99.90
74513;DHT22;62992;52.052;8.550;2023-03-14T10:17:08;11.20;99.90
74513;DHT22;62992;52.052;8.550;2023-03-14T10:19:55;11.40;99.90
74513;DHT22;62992;52.052;8.550;2023-03-14T10:22:39;11.40;99.90
74513;DHT22;62992;52.052;8.550;2023-03-14T10:25:27;11.20;99.90
74513;DHT22;62992;52.052;8.550;2023-03-14T10:28:27;11.10;99.90
74513;DHT22;62992;52.052;8.550;2023-03-14T10:31:12;11.00;99.90
74513;DHT22;62992;52.052;8.550;2023-03-14T10:34:02;11.00;99.90
74513;DHT22;62992;52.052;8.550;2023-03-14T10:36:53;10.90;99.90
74513;DHT22;62992;52.052;8.550;2023-03-14T10:39:42;10.60;99.90
74513;DHT22;62992;52.052;8.550;2023-03-14T10:42:30;9.70;99.90
74513;DHT22;62992;52.052;8.550;2023-03-14T10:45:32;9.40;99.90
74513;DHT22;62992;52.052;8.550;2023-03-14T10:54:04;8.90;99.90
74513;DHT22;62992;52.052;8.550;2023-03-14T10:57:00;8.70;99.90
74513;DHT22;62992;52.052;8.550;2023-03-14T10:59:45;8.30;99.90
74513;DHT22;62992;52.052;8.550;2023-03-14T11:08:59;8.10;99.90
74513;DHT22;62992;52.052;8.550;2023-03-14T11:11:25;8.00;99.90
74513;DHT22;62992;52.052;8.550;2023-03-14T11:14:22;7.70;99.90
74513;DHT22;62992;52.052;8.550;2023-03-14T11:17:34;7.10;99.90
74513;DHT22;62992;52.052;8.550;2023-03-14T11:20:36;7.00;99.90
74513;DHT22;62992;52.052;8.550;2023-03-14T11:23:27;7.00;99.90
74513;DHT22;62992;52.052;8.550;2023-03-14T11:29:41;6.80;99.90
74513;DHT22;62992;52.052;8.550;2023-03-14T11:32:35;6.20;99.90
74513;DHT22;62992;52.052;8.550;2023-03-14T11:35:30;5.90;99.90
74513;DHT22;62992;52.052;8.550;2023-03-14T11:38:48;5.80;99.90
74513;DHT22;62992;52.052;8.550;2023-03-14T11:41:37;5.80;99.90
74513;DHT22;62992;52.052;8.550;2023-03-14T11:44:37;5.70;99.90
74513;DHT22;62992;52.052;8.550;2023-03-14T11:47:26;5.70;99.90
74513;DHT22;62992;52.052;8.550;2023-03-14T11:50:22;5.60;99.90
74513;DHT22;62992;52.052;8.550;2023-03-14T11:55:39;5.50;99.90
74513;DHT22;62992;52.052;8.550;2023-03-14T11:58:27;5.50;99.90
74513;DHT22;62992;52.052;8.550;2023-03-14T12:01:14;5.60;99.90
74513;DHT22;62992;52.052;8.550;2023-03-14T12:04:20;5.60;99.90
74513;DHT22;62992;52.052;8.550;2023-03-14T12:07:39;5.70;99.90
74513;DHT22;62992;52.052;8.550;2023-03-14T12:10:27;5.60;99.90
74513;DHT22;62992;52.052;8.550;2023-03-14T12:13:13;5.60;99.90
74513;DHT22;62992;52.052;8.550;2023-03-14T12:15:59;5.50;99.90
74513;DHT22;62992;52.052;8.550;2023-03-14T12:18:44;5.50;99.90
74513;DHT22;62992;52.052;8.550;2023-03-14T12:21:47;5.60;99.90
74513;DHT22;62992;52.052;8.550;2023-03-14T12:24:35;5.80;99.90
74513;DHT22;62992;52.052;8.550;2023-03-14T12:27:42;5.90;99.90
74513;DHT22;62992;52.052;8.550;2023-03-14T12:30:34;5.90;99.90
74513;DHT22;62992;52.052;8.550;2023-03-14T12:33:19;6.00;99.90
74513;DHT22;62992;52.052;8.550;2023-03-14T12:36:11;6.20;99.90
74513;DHT22;62992;52.052;8.550;2023-03-14T12:39:03;6.30;99.90
74513;DHT22;62992;52.052;8.550;2023-03-14T12:42:17;6.30;99.90
74513;DHT22;62992;52.052;8.550;2023-03-14T12:45:22;6.50;99.90
74513;DHT22;62992;52.052;8.550;2023-03-14T12:51:37;6.60;99.90
74513;DHT22;62992;52.052;8.550;2023-03-14T12:57:34;6.70;99.90
74513;DHT22;62992;52.052;8.550;2023-03-14T13:00:22;6.60;99.90
74513;DHT22;62992;52.052;8.550;2023-03-14T13:06:02;6.70;99.90
74513;DHT22;62992;52.052;8.550;2023-03-14T13:08:48;6.70;99.90
74513;DHT22;62992;52.052;8.550;2023-03-14T13:11:36;6.60;99.90
74513;DHT22;62992;52.052;8.550;2023-03-14T13:14:20;6.50;99.90
74513;DHT22;62992;52.052;8.550;2023-03-14T13:17:04;6.40;99.90
74513;DHT22;62992;52.052;8.550;2023-03-14T13:19:55;6.30;99.90
74513;DHT22;62992;52.052;8.550;2023-03-14T13:22:46;6.00;99.90
74513;DHT22;62992;52.052;8.550;2023-03-14T13:25:35;5.60;99.90
74513;DHT22;62992;52.052;8.550;2023-03-14T13:28:20;5.40;99.90
74513;DHT22;62992;52.052;8.550;2023-03-14T13:31:05;5.10;99.90
74513;DHT22;62992;52.052;8.550;2023-03-14T13:34:04;5.20;99.90
74513;DHT22;62992;52.052;8.550;2023-03-14T13:36:52;5.50;99.90
74513;DHT22;62992;52.052;8.550;2023-03-14T13:39:39;5.30;99.90
74513;DHT22;62992;52.052;8.550;2023-03-14T13:42:29;5.40;99.90
74513;DHT22;62992;52.052;8.550;2023-03-14T13:45:13;5.50;99.90
74513;DHT22;62992;52.052;8.550;2023-03-14T13:47:58;5.60;99.90
74513;DHT22;62992;52.052;8.550;2023-03-14T13:50:50;5.70;99.90
74513;DHT22;62992;52.052;8.550;2023-03-14T13:56:31;5.90;99.90
74513;DHT22;62992;52.052;8.550;2023-03-14T13:59:29;6.10;99.90
74513;DHT22;62992;52.052;8.550;2023-03-14T14:02:14;6.10;99.90
74513;DHT22;62992;52.052;8.550;2023-03-14T14:05:00;6.10;99.90
74513;DHT22;62992;52.052;8.550;2023-03-14T14:07:45;6.20;99.90
74513;DHT22;62992;52.052;8.550;2023-03-14T14:10:36;6.20;99.90
74513;DHT22;62992;52.052;8.550;2023-03-14T14:13:21;6.30;99.90
74513;DHT22;62992;52.052;8.550;2023-03-14T14:16:07;6.50;99.90
74513;DHT22;62992;52.052;8.550;2023-03-14T14:18:54;6.70;99.90
74513;DHT22;62992;52.052;8.550;2023-03-14T14:21:39;6.60;99.90
74513;DHT22;62992;52.052;8.550;2023-03-14T14:24:27;6.50;99.90
74513;DHT22;62992;52.052;8.550;2023-03-14T14:27:38;6.50;99.90
74513;DHT22;62992;52.052;8.550;2023-03-14T14:33:20;6.30;99.90
74513;DHT22;62992;52.052;8.550;2023-03-14T14:36:11;6.10;99.90
74513;DHT22;62992;52.052;8.550;2023-03-14T14:41:44;6.00;99.90
74513;DHT22;62992;52.052;8.550;2023-03-14T14:44:32;6.00;99.90
74513;DHT22;62992;52.052;8.550;2023-03-14T14:47:22;6.00;99.90
74513;DHT22;62992;52.052;8.550;2023-03-14T14:53:24;6.30;99.90
74513;DHT22;62992;52.052;8.550;2023-03-14T14:56:18;6.50;99.90
74513;DHT22;62992;52.052;8.550;2023-03-14T14:59:17;6.70;99.90
74513;DHT22;62992;52.052;8.550;2023-03-14T15:02:16;6.80;99.90
74513;DHT22;62992;52.052;8.550;2023-03-14T15:05:15;6.80;99.90
74513;DHT22;62992;52.052;8.550;2023-03-14T15:08:00;6.60;99.90
74513;DHT22;62992;52.052;8.550;2023-03-14T15:10:44;6.50;99.90
74513;DHT22;62992;52.052;8.550;2023-03-14T15:13:28;6.50;99.90
74513;DHT22;62992;52.052;8.550;2023-03-14T15:16:15;6.50;99.90
74513;DHT22;62992;52.052;8.550;2023-03-14T15:19:01;6.60;99.90
74513;DHT22;62992;52.052;8.550;2023-03-14T15:21:49;6.60;99.90
74513;DHT22;62992;52.052;8.550;2023-03-14T15:24:34;6.60;99.90
74513;DHT22;62992;52.052;8.550;2023-03-14T15:27:18;6.40;99.90
74513;DHT22;62992;52.052;8.550;2023-03-14T15:30:03;6.40;99.90
74513;DHT22;62992;52.052;8.550;2023-03-14T15:32:47;6.40;99.90
74513;DHT22;62992;52.052;8.550;2023-03-14T15:35:31;6.50;99.90
74513;DHT22;62992;52.052;8.550;2023-03-14T15:38:20;6.50;99.90
74513;DHT22;62992;52.052;8.550;2023-03-14T15:41:07;6.60;99.90
74513;DHT22;62992;52.052;8.550;2023-03-14T15:43:53;6.60;99.90
74513;DHT22;62992;52.052;8.550;2023-03-14T15:46:38;6.60;99.90
74513;DHT22;62992;52.052;8.550;2023-03-14T15:49:22;6.50;99.90
74513;DHT22;62992;52.052;8.550;2023-03-14T15:52:06;6.40;99.90
74513;DHT22;62992;52.052;8.550;2023-03-14T15:54:51;6.50;99.90
74513;DHT22;62992;52.052;8.550;2023-03-14T15:57:35;6.40;99.90
74513;DHT22;62992;52.052;8.550;2023-03-14T16:00:20;6.40;99.90
74513;DHT22;62992;52.052;8.550;2023-03-14T16:03:08;6.50;99.90
74513;DHT22;62992;52.052;8.550;2023-03-14T16:05:52;6.30;99.90
74513;DHT22;62992;52.052;8.550;2023-03-14T16:08:36;6.30;99.90
74513;DHT22;62992;52.052;8.550;2023-03-14T16:11:20;6.30;99.90
74513;DHT22;62992;52.052;8.550;2023-03-14T16:14:04;6.30;99.90
74513;DHT22;62992;52.052;8.550;2023-03-14T16:16:49;6.30;99.90
74513;DHT22;62992;52.052;8.550;2023-03-14T16:19:33;6.10;99.90
74513;DHT22;62992;52.052;8.550;2023-03-14T16:22:17;6.00;99.90
74513;DHT22;62992;52.052;8.550;2023-03-14T16:25:06;6.00;99.90
74513;DHT22;62992;52.052;8.550;2023-03-14T16:27:51;6.00;99.90
74513;DHT22;62992;52.052;8.550;2023-03-14T16:30:35;6.00;99.90
74513;DHT22;62992;52.052;8.550;2023-03-14T16:33:19;6.10;99.90
74513;DHT22;62992;52.052;8.550;2023-03-14T16:36:08;6.00;99.90
74513;DHT22;62992;52.052;8.550;2023-03-14T16:38:53;6.00;99.90
74513;DHT22;62992;52.052;8.550;2023-03-14T16:41:38;5.90;99.90
74513;DHT22;62992;52.052;8.550;2023-03-14T16:44:22;5.90;99.90
74513;DHT22;62992;52.052;8.550;2023-03-14T16:47:06;5.90;99.90
74513;DHT22;62992;52.052;8.550;2023-03-14T16:49:50;5.80;99.90
74513;DHT22;62992;52.052;8.550;2023-03-14T16:52:35;5.70;99.90
74513;DHT22;62992;52.052;8.550;2023-03-14T16:55:19;5.80;99.90
74513;DHT22;62992;52.052;8.550;2023-03-14T16:58:03;5.70;99.90
74513;DHT22;62992;52.052;8.550;2023-03-14T17:00:47;5.60;99.90
74513;DHT22;62992;52.052;8.550;2023-03-14T17:03:32;5.50;99.90
74513;DHT22;62992;52.052;8.550;2023-03-14T17:06:22;5.40;99.90
74513;DHT22;62992;52.052;8.550;2023-03-14T17:09:06;5.40;99.90
74513;DHT22;62992;52.052;8.550;2023-03-14T17:11:50;5.40;99.90
74513;DHT22;62992;52.052;8.550;2023-03-14T17:14:34;5.40;99.90
74513;DHT22;62992;52.052;8.550;2023-03-14T17:17:19;5.30;99.90
74513;DHT22;62992;52.052;8.550;2023-03-14T17:20:04;5.20;99.90
74513;DHT22;62992;52.052;8.550;2023-03-14T17:22:49;5.20;99.90
74513;DHT22;62992;52.052;8.550;2023-03-14T17:25:34;5.20;99.90
74513;DHT22;62992;52.052;8.550;2023-03-14T17:28:19;5.20;99.90
74513;DHT22;62992;52.052;8.550;2023-03-14T17:31:09;5.20;99.90
74513;DHT22;62992;52.052;8.550;2023-03-14T17:33:55;5.20;99.90
74513;DHT22;62992;52.052;8.550;2023-03-14T17:36:39;5.10;99.90
74513;DHT22;62992;52.052;8.550;2023-03-14T17:39:23;5.00;99.90
74513;DHT22;62992;52.052;8.550;2023-03-14T17:42:07;4.90;99.90
74513;DHT22;62992;52.052;8.550;2023-03-14T17:44:52;4.80;99.90
74513;DHT22;62992;52.052;8.550;2023-03-14T17:47:36;4.70;99.90
74513;DHT22;62992;52.052;8.550;2023-03-14T17:50:20;4.70;99.90
74513;DHT22;62992;52.052;8.550;2023-03-14T17:53:05;4.60;99.90
74513;DHT22;62992;52.052;8.550;2023-03-14T17:55:49;4.50;99.90
74513;DHT22;62992;52.052;8.550;2023-03-14T17:58:33;4.50;99.90
74513;DHT22;62992;52.052;8.550;2023-03-14T18:01:20;4.50;99.90
74513;DHT22;62992;52.052;8.550;2023-03-14T18:04:05;4.40;99.90
74513;DHT22;62992;52.052;8.550;2023-03-14T18:06:49;4.30;99.90
74513;DHT22;62992;52.052;8.550;2023-03-14T18:09:33;4.20;99.90
74513;DHT22;62992;52.052;8.550;2023-03-14T18:12:17;4.20;99.90
74513;DHT22;62992;52.052;8.550;2023-03-14T18:15:02;4.20;99.90
74513;DHT22;62992;52.052;8.550;2023-03-14T18:17:47;4.20;99.90
74513;DHT22;62992;52.052;8.550;2023-03-14T18:20:31;4.20;99.90
74513;DHT22;62992;52.052;8.550;2023-03-14T18:23:15;4.10;99.90
74513;DHT22;62992;52.052;8.550;2023-03-14T18:26:00;4.10;99.90
74513;DHT22;62992;52.052;8.550;2023-03-14T18:28:45;4.10;99.90
74513;DHT22;62992;52.052;8.550;2023-03-14T18:31:32;4.10;99.90
74513;DHT22;62992;52.052;8.550;2023-03-14T18:34:18;4.10;99.90
74513;DHT22;62992;52.052;8.550;2023-03-14T18:37:02;4.10;99.90
74513;DHT22;62992;52.052;8.550;2023-03-14T18:39:46;4.10;99.90
74513;DHT22;62992;52.052;8.550;2023-03-14T18:42:30;4.00;99.90
74513;DHT22;62992;52.052;8.550;2023-03-14T18:45:14;4.00;99.90
74513;DHT22;62992;52.052;8.550;2023-03-14T18:47:59;3.90;99.90
74513;DHT22;62992;52.052;8.550;2023-03-14T18:50:43;3.90;99.90
74513;DHT22;62992;52.052;8.550;2023-03-14T18:53:27;4.00;99.90
74513;DHT22;62992;52.052;8.550;2023-03-14T18:56:15;4.00;99.90
74513;DHT22;62992;52.052;8.550;2023-03-14T18:58:59;4.00;99.90